This is the latest recevied weather packets stored in our database for station/object KF5WCW-1. If no packets are shown the sender has not sent any weather packets the latest 1 day(s).
| Time | Temp. | Humidity | Pressure | Rain* | Wind** | Luminosity | Snow |
|---|---|---|---|---|---|---|---|
| 1836274789 | 16.11° C | 49% | 0 hPa | 0 mm | 0.45 m/s, 299° | - | - |
| 1836274489 | 16.67° C | 47% | 0 hPa | 0 mm | 3.58 m/s, 272° | - | - |
| 1836274339 | 15.56° C | 47% | 0 hPa | 0 mm | 1.79 m/s, 257° | - | - |
| 1836274189 | 17.22° C | 43% | 0 hPa | 0 mm | 1.79 m/s, 289° | - | - |
| 1836273889 | 17.22° C | 42% | 0 hPa | 0 mm | 2.68 m/s, 292° | - | - |
| 1778037068 | 3.33° C | 81% | 0 hPa | 0 mm | 3.13 m/s, 191° | - | - |
| 1778036768 | 3.89° C | 80% | 0 hPa | 0 mm | 3.58 m/s, 187° | - | - |
| 1778036468 | 3.89° C | 78% | 0 hPa | 0 mm | 0.89 m/s, 157° | - | - |
| 1778036168 | 4.44° C | 77% | 0 hPa | 0 mm | 0.89 m/s, 154° | - | - |
| 1778035868 | 4.44° C | 75% | 0 hPa | 0 mm | 1.79 m/s, 118° | - | - |
| 1778035568 | 4.44° C | 74% | 0 hPa | 0 mm | 1.79 m/s, 129° | - | - |
| 1778035268 | 5° C | 74% | 0 hPa | 0 mm | 3.13 m/s, 77° | - | - |
| 1778034968 | 5° C | 73% | 0 hPa | 0 mm | 3.58 m/s, 66° | - | - |
| 1778034668 | 5° C | 73% | 0 hPa | 0 mm | 2.68 m/s, 119° | - | - |
| 1778034368 | 5.56° C | 72% | 0 hPa | 0 mm | 0 m/s | - | - |
| 1778034068 | 5.56° C | 72% | 0 hPa | 0 mm | 3.13 m/s, 102° | - | - |
| 1778033768 | 5.56° C | 72% | 0 hPa | 0 mm | 1.79 m/s, 45° | - | - |
| 1778033468 | 5.56° C | 71% | 0 hPa | 0 mm | 2.24 m/s, 63° | - | - |
| 1778033168 | 5.56° C | 72% | 0 hPa | 0 mm | 1.79 m/s, 11° | - | - |
| 1778032868 | 5.56° C | 73% | 0 hPa | 0 mm | 2.68 m/s, 37° | - | - |
| 1778032568 | 5.56° C | 73% | 0 hPa | 0 mm | 4.02 m/s, 50° | - | - |
| 1778032268 | 5.56° C | 72% | 0 hPa | 0 mm | 4.92 m/s, 47° | - | - |
| 1778031968 | 5.56° C | 71% | 0 hPa | 0 mm | 4.02 m/s, 56° | - | - |
| 1778031668 | 6.11° C | 70% | 0 hPa | 0 mm | 4.47 m/s, 14° | - | - |
| 1778031368 | 6.11° C | 69% | 0 hPa | 0 mm | 7.15 m/s, 73° | - | - |
* Rain latest hour (hover to see other rain measurements)
** Current wind speed in m/s (hover to see current wind gust speed)